x

Luke Offshore Test Platform - 64 Nm South Of Dauphin Island, Al (42040) Wave Buoy

2:50pm - Wed 20th Aug 2014 All times are CDT. -5 hours from GMT.

  • Sig Wave height 1.3ft
  • Swell Direction
  • Average Period 4s
  • Wind
  • Sea Temp 91°f
  • Air Temp 87°f
  • Sea Pressure 1018.6mb
  • Luke Offshore Test Platform - 64 Nm South Of Dauphin Island, Al
  • Luke Offshore Test Platform - 64 Nm South Of Dauphin Island, Al

More Historic Weather Station data

Upgrade to MSW Pro to gain access to the past 30 days of data for over 8000 Wavebouys and Weather Stations around the globe.

Join Pro

Comparision Forecast

View Surf forecast
   
Wed 08/20 2:50pm 1.3ft 4s  -  2 mph 1018.6mb 91f 87f
1:50pm 1.3ft 4s 2 4 mph 1019.4mb 90f 86f
12:50pm 1.3ft 4s 2 4 mph 1019.5mb 91f 86f
11:50am 1.3ft 4s 2
mph
1019.7mb 90f 87f
10:50am 1.3ft 4s 2 4 mph 1019.7mb 89f 87f
9:50am 1.3ft 4s 4 7 mph 1019.4mb 88f 86f
8:50am 1.6ft 4s 7
mph
1018.7mb 87f 86f
7:50am 1.6ft 3s 9
mph
1018.1mb 87f 86f
6:50am 1.6ft 3s 7 9 mph 1017.5mb 87f 85f
5:50am 1.6ft 4s 11
mph
1016.6mb 87f 85f
4:50am 1.6ft 3s 13
mph
1015.6mb 87f 85f
3:50am 1.6ft 3s 16 18 mph 1015mb 87f 85f
2:50am 1.3ft 4s 16 20 mph 1014.8mb 87f 85f
1:50am 1.3ft 4s 9 11 mph 1015.6mb 87f 85f
12:50am 1.3ft 4s 7
mph
1016.2mb 87f 85f
Tue 08/19 11:50pm 1.3ft 4s 7
mph
1016.6mb 87f 85f
10:50pm 1ft 4s 7 9 mph 1017.1mb 88f 86f
9:50pm 1.3ft 4s 7 9 mph 1016.6mb 88f 86f
8:50pm 1.3ft 4s 11 13 mph 1015.1mb 88f 86f
7:50pm 1.3ft 4s 11 16 mph 1014.9mb 89f 86f
6:50pm 1ft 4s 11 13 mph 1015.4mb 89f 86f
5:50pm 1ft 4s 9 11 mph 1015.2mb 90f 86f
4:50pm 1.3ft 4s 7 9 mph 1014.7mb 90f 86f
3:50pm 1.3ft 4s 9 11 mph 1015.2mb 90f 86f
2:50pm 1.3ft 4s 9 11 mph 1015.9mb 90f 85f
1:50pm 1.3ft 4s 9 11 mph 1016.5mb 90f 86f
12:50pm 1.6ft 3s 9 11 mph 1017.2mb 89f 86f
11:50am 1.6ft 3s 9 11 mph 1017.3mb 88f 86f
10:50am 1.6ft 3s 11 13 mph 1017.5mb 88f 86f
9:50am 1.6ft 3s 11 13 mph 1017.5mb 87f 86f
8:50am 2ft 3s 13 16 mph 1016.8mb 87f 85f
7:50am 2ft 3s 13 16 mph 1016.2mb 87f 85f
6:50am 2ft 3s 16 18 mph 1015.7mb 87f 85f
5:50am 2ft 4s 11 13 mph 1015.1mb 87f 85f
4:50am 2ft 4s 13 18 mph 1014.8mb 87f 85f
3:50am 2ft 3s 13 16 mph 1014.8mb 87f 85f
2:50am 2ft 3s 16 18 mph 1014.9mb 87f 85f
1:50am 1.6ft 3s 16 18 mph 1015.1mb 87f 85f
12:50am 1.6ft 3s 13 16 mph 1015.5mb 87f 86f
Mon 08/18 11:50pm 1.6ft 3s 13 16 mph 1015.4mb 87f 86f
10:50pm 1.6ft 3s 11 13 mph 1015.7mb 88f 86f
9:50pm 1.6ft 3s 11 16 mph 1015.9mb 88f 86f
8:50pm 1.6ft 3s 13 16 mph 1015.5mb 88f 86f
7:50pm 1.3ft 3s 11 13 mph 1015.4mb 88f 86f
6:50pm 1.6ft 3s 11 13 mph 1015.1mb 89f 86f
5:50pm 1.6ft 3s 11 16 mph 1015.3mb 89f 86f
4:50pm 1.6ft 3s 13 16 mph 1015.3mb 89f 86f
3:50pm 1.6ft 3s 13 16 mph 1015.4mb 89f 86f
2:50pm 1.6ft 3s 11 16 mph 1015.9mb 89f 86f
1:50pm 1.6ft 3s 11 16 mph 1016.8mb 89f 86f
12:50pm 1.6ft 3s 11 13 mph 1017.3mb 89f 86f
11:50am 1.6ft 3s 13 16 mph 1017.8mb 88f 86f
10:50am 1.6ft 3s 13 16 mph 1018.1mb 87f 85f
9:50am 2ft 3s 13 16 mph 1017.5mb 86f 85f
8:50am 2ft 3s 13 16 mph 1017.4mb 86f 85f
7:50am 1.6ft 3s 13 16 mph 1017.5mb 85f 85f
6:50am 1.6ft 3s 11 13 mph 1017.3mb 85f 85f
5:50am 2ft 3s 11 13 mph 1017mb 85f 85f
4:50am 1.6ft 3s 11 16 mph 1016.6mb 86f 85f
3:50am 2ft 3s 13 16 mph 1016.4mb 86f 85f
2:50am 1.6ft 3s 16
mph
- - 85f
1:50am 1.6ft 3s 16 18 mph 1016.7mb 86f 85f
12:50am 1.3ft 3s 13 16 mph 1017.2mb 86f 85f
Sun 08/17 11:50pm 1.3ft 3s 13 16 mph 1017.8mb 86f 85f
10:50pm 1.3ft 4s 11 13 mph 1017.8mb 87f 86f
9:50pm 1ft 4s 11 13 mph 1017.6mb 87f 86f
8:50pm 1.3ft 4s 9
mph
1017.8mb 87f 86f
7:50pm 1.3ft 4s 9 11 mph 1017.7mb 87f 85f
6:50pm 1.3ft 3s 11 13 mph 1017.7mb 87f 86f
5:50pm 1.6ft 3s 9 11 mph 1017.5mb 88f 86f
4:50pm 1.6ft 3s 11
mph
1017.5mb 88f 86f
3:50pm 1.6ft 3s 11 13 mph 1017.6mb 88f 86f
2:50pm 1.6ft 3s 16 18 mph 1018mb 88f 85f
1:50pm 1.6ft 3s 13 16 mph 1018.1mb 88f 86f
12:50pm 1.6ft 3s 13 16 mph 1018.2mb 87f 86f
11:50am 1.6ft 3s 11 13 mph 1018.8mb 87f 85f
10:50am 1.6ft 4s 11 13 mph 1019.4mb 86f 85f
9:50am 1.6ft 3s 11
mph
1019.5mb 86f 85f
8:50am 2ft 3s 13 16 mph 1019mb 86f 85f
7:50am 2ft 3s 13 18 mph 1018.6mb 86f 85f
6:50am 2ft 3s 18 22 mph 1018.1mb 86f 83f
5:50am 2.5ft 3s 16 18 mph 1017.6mb 86f 85f
4:50am 2ft 3s 18 22 mph 1017.3mb 86f 84f
3:50am 1.6ft 3s 16 18 mph 1017.1mb 86f 85f
2:50am 1.6ft 3s 13 16 mph 1017.1mb 86f 85f
1:50am 1.6ft 3s 11 13 mph 1017.2mb 86f 85f
12:50am 1.6ft 3s 13 16 mph 1017.6mb 86f 85f
Sat 08/16 11:50pm 1.6ft 3s 13 16 mph 1017.6mb 86f 85f
10:50pm 1.6ft 3s 11 13 mph 1017.6mb 87f 85f
9:50pm 1.3ft 3s 11 13 mph 1017.5mb 87f 85f
8:50pm 1.3ft 3s 11 13 mph 1017.5mb 87f 85f